createdAt,value
2018-01-22T00:01:35.631Z,1.40
2018-01-22T00:04:03.854Z,1.40
2018-01-22T00:06:31.348Z,1.40
2018-01-22T00:08:58.819Z,1.40
2018-01-22T00:11:26.285Z,1.30
2018-01-22T00:13:54.546Z,1.40
2018-01-22T00:16:22.795Z,1.40
2018-01-22T00:18:50.250Z,1.40
2018-01-22T00:21:17.717Z,1.30
2018-01-22T00:23:45.198Z,1.30
2018-01-22T00:26:13.430Z,1.40
2018-01-22T00:28:40.900Z,1.40
2018-01-22T00:31:08.380Z,1.40
2018-01-22T00:33:35.847Z,1.40
2018-01-22T00:36:03.311Z,1.40
2018-01-22T00:38:31.971Z,1.30
2018-01-22T00:40:59.415Z,1.30
2018-01-22T00:43:26.900Z,1.30
2018-01-22T00:45:54.380Z,1.30
2018-01-22T00:48:22.614Z,1.30
2018-01-22T00:50:50.068Z,1.30
2018-01-22T00:53:17.548Z,1.30
2018-01-22T00:55:45.099Z,1.30
2018-01-22T00:58:12.565Z,1.30
2018-01-22T01:00:41.547Z,1.30
2018-01-22T01:03:09.019Z,1.30
2018-01-22T01:05:36.482Z,1.40
2018-01-22T01:08:04.720Z,1.40
2018-01-22T01:10:32.192Z,1.40
2018-01-22T01:12:59.647Z,1.40
2018-01-22T01:15:27.112Z,1.40
2018-01-22T01:17:54.587Z,1.40
2018-01-22T01:20:22.813Z,1.40
2018-01-22T01:22:50.287Z,1.40
2018-01-22T01:25:17.751Z,1.40
2018-01-22T01:27:45.237Z,1.30
2018-01-22T01:30:13.491Z,1.30
2018-01-22T01:32:40.956Z,1.30
2018-01-22T01:35:08.515Z,1.40
2018-01-22T01:37:35.996Z,1.30
2018-01-22T01:40:04.260Z,1.40
2018-01-22T01:42:32.512Z,1.40
2018-01-22T01:44:59.995Z,1.40
2018-01-22T01:47:28.234Z,1.40
2018-01-22T01:49:55.703Z,1.40
2018-01-22T01:52:23.184Z,1.50
2018-01-22T01:54:51.424Z,1.50
2018-01-22T01:57:18.888Z,1.50
2018-01-22T01:59:46.367Z,1.60
2018-01-22T02:02:15.340Z,1.60
2018-01-22T02:04:42.827Z,1.60
2018-01-22T02:07:11.075Z,1.60
2018-01-22T02:09:38.547Z,1.60
2018-01-22T02:12:06.004Z,1.60
2018-01-22T02:14:35.004Z,1.60
2018-01-22T02:17:02.475Z,1.60
2018-01-22T02:19:30.712Z,1.60
2018-01-22T02:21:58.177Z,1.60
2018-01-22T02:24:25.645Z,1.60
2018-01-22T02:26:53.868Z,1.70
2018-01-22T02:29:21.346Z,1.70
2018-01-22T02:31:48.814Z,1.60
2018-01-22T02:34:16.296Z,1.70
2018-01-22T02:36:44.526Z,1.70
2018-01-22T02:39:12.003Z,1.70
2018-01-22T02:41:39.482Z,1.70
2018-01-22T02:44:06.972Z,1.70
2018-01-22T02:46:34.439Z,1.70
2018-01-22T02:49:01.933Z,1.70
2018-01-22T02:51:29.399Z,1.70
2018-01-22T02:53:56.884Z,1.70
2018-01-22T02:56:25.120Z,1.70
2018-01-22T02:58:52.598Z,1.70
2018-01-22T03:01:20.061Z,1.70
2018-01-22T03:03:47.523Z,1.70
2018-01-22T03:06:15.756Z,1.70
2018-01-22T03:08:43.242Z,1.70
2018-01-22T03:11:10.707Z,1.70
2018-01-22T03:13:38.170Z,1.70
2018-01-22T03:16:05.651Z,1.70
2018-01-22T03:18:33.883Z,1.70
2018-01-22T03:21:01.369Z,1.70
2018-01-22T03:23:29.596Z,1.80
2018-01-22T03:25:57.071Z,1.70
2018-01-22T03:28:24.531Z,1.80
2018-01-22T03:30:52.016Z,1.80
2018-01-22T03:33:20.231Z,1.80
2018-01-22T03:35:47.720Z,1.80
2018-01-22T03:38:15.184Z,1.80
2018-01-22T03:40:42.662Z,1.80
2018-01-22T03:43:10.129Z,1.90
2018-01-22T03:45:38.380Z,1.80
2018-01-22T03:48:05.865Z,1.80
2018-01-22T03:50:34.100Z,1.90
2018-01-22T03:53:01.567Z,1.90
2018-01-22T03:55:29.044Z,1.80
2018-01-22T03:57:57.271Z,1.80
2018-01-22T04:00:24.740Z,1.80
2018-01-22T04:02:52.231Z,1.80
2018-01-22T04:05:20.263Z,1.90
2018-01-22T04:07:47.760Z,1.90
2018-01-22T04:10:15.992Z,1.90
2018-01-22T04:12:43.455Z,1.90
2018-01-22T04:15:10.915Z,1.90
2018-01-22T04:17:38.379Z,1.90
2018-01-22T04:20:05.848Z,1.90
2018-01-22T04:22:33.323Z,2.00
2018-01-22T04:25:00.791Z,2.00
2018-01-22T04:27:35.406Z,2.10
2018-01-22T04:30:02.876Z,2.00
2018-01-22T04:32:31.115Z,2.10
2018-01-22T04:34:58.571Z,2.10
2018-01-22T04:37:26.059Z,2.10
2018-01-22T04:39:54.296Z,2.00
2018-01-22T04:42:21.778Z,2.00
2018-01-22T04:44:49.250Z,2.00
2018-01-22T04:47:17.517Z,2.10
2018-01-22T04:49:44.977Z,2.00
2018-01-22T04:52:12.460Z,2.00
2018-01-22T04:54:39.924Z,2.10
2018-01-22T04:57:07.416Z,2.10
2018-01-22T04:59:35.496Z,2.10
2018-01-22T05:02:02.971Z,2.10
2018-01-22T05:04:30.440Z,2.10
2018-01-22T05:06:58.696Z,2.20
2018-01-22T05:09:26.167Z,2.20
2018-01-22T05:11:53.651Z,2.20
2018-01-22T05:14:21.890Z,2.20
2018-01-22T05:16:49.360Z,2.20
2018-01-22T05:19:16.817Z,2.20
2018-01-22T05:21:45.075Z,2.20
2018-01-22T05:24:12.535Z,2.20
2018-01-22T05:26:40.012Z,2.20
2018-01-22T05:29:07.482Z,2.20
2018-01-22T05:31:35.723Z,2.20
2018-01-22T05:34:03.207Z,2.20
2018-01-22T05:36:30.712Z,2.30
2018-01-22T05:38:58.315Z,2.30
2018-01-22T05:41:27.308Z,2.30
2018-01-22T05:43:55.564Z,2.30
2018-01-22T05:46:23.020Z,2.30
2018-01-22T05:48:50.502Z,2.30
2018-01-22T05:51:17.974Z,2.30
2018-01-22T05:53:46.235Z,2.30
2018-01-22T05:56:13.696Z,2.30
2018-01-22T05:58:41.946Z,2.40
2018-01-22T06:01:09.415Z,2.40
2018-01-22T06:03:38.404Z,2.40
2018-01-22T06:06:05.864Z,2.40
2018-01-22T06:08:33.337Z,2.40
2018-01-22T06:11:00.795Z,2.40
2018-01-22T06:13:28.283Z,2.40
2018-01-22T06:15:55.744Z,2.40
2018-01-22T06:18:23.217Z,2.40
2018-01-22T06:20:50.691Z,2.40
2018-01-22T06:23:18.225Z,2.40
2018-01-22T06:25:49.692Z,2.50
2018-01-22T06:28:17.163Z,2.50
2018-01-22T06:30:44.639Z,2.50
2018-01-22T06:33:12.120Z,2.50
2018-01-22T06:35:40.363Z,2.50
2018-01-22T06:38:07.824Z,2.50
2018-01-22T06:40:36.058Z,2.60
2018-01-22T06:43:03.532Z,2.50
2018-01-22T06:45:31.017Z,2.50
2018-01-22T06:47:58.512Z,2.50
2018-01-22T06:50:26.736Z,2.60
2018-01-22T06:52:54.202Z,2.60
2018-01-22T06:55:21.667Z,2.60
2018-01-22T06:57:50.661Z,2.60
2018-01-22T07:00:18.135Z,2.60
2018-01-22T07:02:45.599Z,2.60
2018-01-22T07:05:13.963Z,2.70
2018-01-22T07:07:42.940Z,2.70
2018-01-22T07:10:16.328Z,2.70
2018-01-22T07:12:43.797Z,2.80
2018-01-22T07:15:11.275Z,2.80
2018-01-22T07:17:39.499Z,2.90
2018-01-22T07:20:06.998Z,2.90
2018-01-22T07:22:34.452Z,2.90
2018-01-22T07:25:02.688Z,3.10
2018-01-22T07:27:30.278Z,3.10
2018-01-22T07:29:57.776Z,3.10
2018-01-22T07:32:26.009Z,3.10
2018-01-22T07:34:53.488Z,3.10
2018-01-22T07:40:13.861Z,3.30
2018-01-22T07:42:41.359Z,3.30
2018-01-22T07:45:09.632Z,3.40
2018-01-22T07:47:37.108Z,3.40
2018-01-22T07:50:04.604Z,3.40
2018-01-22T07:52:32.093Z,3.50
2018-01-22T07:55:01.094Z,3.60
2018-01-22T07:57:28.576Z,3.50
2018-01-22T07:59:56.816Z,3.60
2018-01-22T08:02:24.288Z,3.70
2018-01-22T08:04:51.775Z,3.70
2018-01-22T08:07:19.305Z,3.60
2018-01-22T08:09:47.559Z,3.70
2018-01-22T08:12:15.034Z,3.70
2018-01-22T08:14:42.536Z,3.70
2018-01-22T08:17:09.991Z,3.80
2018-01-22T08:19:37.480Z,3.80
2018-01-22T08:22:04.980Z,3.80
2018-01-22T08:24:33.223Z,3.90
2018-01-22T08:27:00.693Z,3.90
2018-01-22T08:29:28.155Z,3.90
2018-01-22T08:31:55.646Z,3.90
2018-01-22T08:34:23.191Z,3.80
2018-01-22T08:36:50.655Z,3.90
2018-01-22T08:39:25.529Z,4.00
2018-01-22T08:41:53.021Z,4.00
2018-01-22T08:44:20.518Z,4.00
2018-01-22T08:46:48.012Z,4.10
2018-01-22T08:49:15.496Z,4.10
2018-01-22T08:51:42.984Z,4.10
2018-01-22T08:54:10.459Z,4.10
2018-01-22T08:56:37.949Z,4.20
2018-01-22T08:59:05.416Z,4.20
2018-01-22T09:01:34.413Z,4.20
2018-01-22T09:04:01.989Z,4.20
2018-01-22T09:06:29.479Z,4.30
2018-01-22T09:08:56.949Z,4.30
2018-01-22T09:11:24.441Z,4.40
2018-01-22T09:13:51.920Z,4.40
2018-01-22T09:16:20.181Z,4.40
2018-01-22T09:18:48.651Z,4.40
2018-01-22T09:21:16.145Z,4.40
2018-01-22T09:23:44.380Z,4.60
2018-01-22T09:26:11.880Z,4.60
2018-01-22T09:28:41.057Z,4.60
2018-01-22T09:31:08.538Z,4.60
2018-01-22T09:33:36.772Z,4.60
2018-01-22T09:36:04.267Z,4.50
2018-01-22T09:38:33.219Z,4.50
2018-01-22T09:41:00.716Z,4.50
2018-01-22T09:43:28.977Z,4.60
2018-01-22T09:45:56.481Z,4.60
2018-01-22T09:48:23.952Z,4.60
2018-01-22T09:50:51.436Z,4.70
2018-01-22T09:53:18.922Z,4.60
2018-01-22T09:55:47.160Z,4.70
2018-01-22T09:58:14.651Z,4.70
2018-01-22T10:00:42.908Z,4.70
2018-01-22T10:03:10.412Z,4.70
2018-01-22T10:05:37.883Z,4.70
2018-01-22T10:08:05.363Z,4.70
2018-01-22T10:10:32.840Z,4.70
2018-01-22T10:13:00.347Z,4.80
2018-01-22T10:15:27.810Z,4.80
2018-01-22T10:17:55.305Z,4.90
2018-01-22T10:20:22.786Z,4.80
2018-01-22T10:22:51.036Z,4.90
2018-01-22T10:25:18.505Z,4.90
2018-01-22T10:27:45.988Z,4.90
2018-01-22T10:30:14.228Z,5.00
2018-01-22T10:32:41.705Z,5.00
2018-01-22T10:35:09.980Z,5.10
2018-01-22T10:37:37.465Z,5.10
2018-01-22T10:40:04.953Z,5.10
2018-01-22T10:42:32.453Z,5.10
2018-01-22T10:44:59.967Z,5.10
2018-01-22T10:47:27.463Z,5.10
2018-01-22T10:49:54.985Z,5.10
2018-01-22T10:52:22.448Z,5.10
2018-01-22T10:54:49.917Z,5.10
2018-01-22T10:57:17.430Z,5.10
2018-01-22T10:59:45.709Z,5.20
2018-01-22T11:02:13.942Z,5.20
2018-01-22T11:04:41.411Z,5.10
2018-01-22T11:07:09.670Z,5.20
2018-01-22T11:09:37.938Z,5.20
2018-01-22T11:12:06.176Z,5.20
2018-01-22T11:14:33.666Z,5.20
2018-01-22T11:17:01.157Z,5.20
2018-01-22T11:19:28.651Z,5.20
2018-01-22T11:21:56.139Z,5.20
2018-01-22T11:24:23.757Z,5.20
2018-01-22T11:26:52.013Z,5.30
2018-01-22T11:29:19.503Z,5.30
2018-01-22T11:31:47.012Z,5.30
2018-01-22T11:34:14.493Z,5.30
2018-01-22T11:36:42.733Z,5.40
2018-01-22T11:39:10.224Z,5.40
2018-01-22T11:41:38.486Z,5.50
2018-01-22T11:44:05.983Z,5.50
2018-01-22T11:46:33.454Z,5.60
2018-01-22T11:49:00.936Z,5.70
2018-01-22T11:51:28.423Z,5.70
2018-01-22T11:53:55.939Z,5.70
2018-01-22T11:56:23.414Z,5.80
2018-01-22T11:58:50.904Z,5.80
2018-01-22T12:01:19.136Z,5.80
2018-01-22T12:03:46.623Z,5.80
2018-01-22T12:06:14.853Z,6.00
2018-01-22T12:08:42.343Z,6.00
2018-01-22T12:11:10.585Z,6.00
2018-01-22T12:13:38.079Z,6.00
2018-01-22T12:16:05.554Z,6.00
2018-01-22T12:18:33.024Z,6.00
2018-01-22T12:21:01.262Z,6.00
2018-01-22T12:23:28.744Z,6.00
2018-01-22T12:25:56.997Z,6.10
2018-01-22T12:28:24.461Z,6.10
2018-01-22T12:30:51.950Z,6.20
2018-01-22T12:33:20.183Z,6.20
2018-01-22T12:35:47.688Z,6.20
2018-01-22T12:38:15.965Z,6.10
2018-01-22T12:40:44.216Z,6.10
2018-01-22T12:43:11.692Z,6.10
2018-01-22T12:45:39.957Z,6.10
2018-01-22T12:48:08.227Z,6.20
2018-01-22T12:50:35.725Z,6.20
2018-01-22T12:53:03.190Z,6.20
2018-01-22T12:55:30.673Z,6.20
2018-01-22T12:57:58.148Z,6.30
2018-01-22T13:00:25.732Z,6.30
2018-01-22T13:02:53.972Z,6.30
2018-01-22T13:05:21.596Z,6.20
2018-01-22T13:07:49.060Z,6.20
2018-01-22T13:10:16.536Z,6.30
2018-01-22T13:12:44.035Z,6.30
2018-01-22T13:15:11.528Z,6.20
2018-01-22T13:17:38.999Z,6.20
2018-01-22T13:20:06.514Z,6.20
2018-01-22T13:22:34.783Z,6.20
2018-01-22T13:25:03.069Z,6.10
2018-01-22T13:27:31.327Z,6.20
2018-01-22T13:29:58.821Z,6.20
2018-01-22T13:32:27.060Z,6.20
2018-01-22T13:34:54.604Z,6.20
2018-01-22T13:37:22.093Z,6.20
2018-01-22T13:39:50.334Z,6.10
2018-01-22T13:42:18.582Z,6.00
2018-01-22T13:44:46.058Z,6.00
2018-01-22T13:47:13.556Z,6.00
2018-01-22T13:49:41.811Z,6.00
2018-01-22T13:52:09.305Z,6.00
2018-01-22T13:54:37.546Z,6.00
2018-01-22T13:57:05.024Z,6.00
2018-01-22T13:59:32.499Z,6.00
2018-01-22T14:02:00.822Z,5.90
2018-01-22T14:04:28.293Z,5.90
2018-01-22T14:06:55.789Z,5.90
2018-01-22T14:09:24.035Z,5.90
2018-01-22T14:11:51.518Z,5.90
2018-01-22T14:14:19.746Z,5.90
2018-01-22T14:16:47.240Z,5.90
2018-01-22T14:19:14.704Z,5.80
2018-01-22T14:21:42.949Z,5.90
2018-01-22T14:24:10.419Z,5.90
2018-01-22T14:26:37.897Z,5.90
2018-01-22T14:29:06.131Z,5.90
2018-01-22T14:31:33.624Z,5.90
2018-01-22T14:34:01.091Z,5.90
2018-01-22T14:36:30.463Z,5.80
2018-01-22T14:38:57.928Z,5.80
2018-01-22T14:41:25.415Z,5.80
2018-01-22T14:43:53.660Z,5.80
2018-01-22T14:46:21.199Z,5.80
2018-01-22T14:48:48.666Z,5.80
2018-01-22T14:51:16.167Z,5.70
2018-01-22T14:53:43.641Z,5.80
2018-01-22T14:56:11.115Z,5.80
2018-01-22T14:58:38.606Z,5.70
2018-01-22T15:01:06.093Z,5.80
2018-01-22T15:03:34.353Z,5.80
2018-01-22T15:06:02.631Z,5.70
2018-01-22T15:08:30.122Z,5.70
2018-01-22T15:10:57.625Z,5.70
2018-01-22T15:13:25.102Z,5.70
2018-01-22T15:15:52.574Z,5.70
2018-01-22T15:18:20.819Z,5.90
2018-01-22T15:20:48.334Z,5.90
2018-01-22T15:23:15.821Z,5.90
2018-01-22T15:25:43.300Z,5.80
2018-01-22T15:28:10.812Z,5.80
2018-01-22T15:30:38.300Z,5.80
2018-01-22T15:33:05.782Z,5.80
2018-01-22T15:35:33.249Z,5.80
2018-01-22T15:38:01.505Z,5.70
2018-01-22T15:40:28.992Z,5.70
2018-01-22T15:42:57.289Z,5.70
2018-01-22T15:45:25.494Z,5.70
2018-01-22T15:47:52.975Z,5.70
2018-01-22T15:50:20.463Z,5.70
2018-01-22T15:52:48.734Z,5.60
2018-01-22T15:55:16.996Z,5.60
2018-01-22T15:57:45.330Z,5.60
2018-01-22T16:00:12.813Z,5.60
2018-01-22T16:02:40.398Z,5.60
2018-01-22T16:05:08.637Z,5.60
2018-01-22T16:07:36.161Z,5.60
2018-01-22T16:10:03.651Z,5.60
2018-01-22T16:12:31.112Z,5.60
2018-01-22T16:14:58.596Z,5.60
2018-01-22T16:17:26.092Z,5.70
2018-01-22T16:19:53.570Z,5.70
2018-01-22T16:22:21.056Z,5.70
2018-01-22T16:24:48.569Z,5.70
2018-01-22T16:27:16.052Z,5.70
2018-01-22T16:29:43.541Z,5.70
2018-01-22T16:32:11.023Z,5.70
2018-01-22T16:34:39.267Z,5.70
2018-01-22T16:37:06.743Z,5.70
2018-01-22T16:39:34.991Z,5.60
2018-01-22T16:42:02.464Z,5.60
2018-01-22T16:44:29.959Z,5.60
2018-01-22T16:47:03.194Z,5.60
2018-01-22T16:49:30.679Z,5.60
2018-01-22T16:51:58.166Z,5.60
2018-01-22T16:54:25.662Z,5.60
2018-01-22T16:56:53.136Z,5.60
2018-01-22T16:59:20.622Z,5.60
2018-01-22T17:01:48.868Z,5.60
2018-01-22T17:04:16.381Z,5.60
2018-01-22T17:06:43.863Z,5.50
2018-01-22T17:09:11.456Z,5.50
2018-01-22T17:11:38.944Z,5.50
2018-01-22T17:14:07.204Z,5.50
2018-01-22T17:16:35.446Z,5.50
2018-01-22T17:19:03.045Z,5.50
2018-01-22T17:21:37.771Z,5.50
2018-01-22T17:24:06.020Z,5.50
2018-01-22T17:26:33.500Z,5.50
2018-01-22T17:29:01.753Z,5.60
2018-01-22T17:31:29.304Z,5.50
2018-01-22T17:34:10.888Z,5.50
2018-01-22T17:36:38.673Z,5.50
2018-01-22T17:39:07.347Z,5.50
2018-01-22T17:41:35.621Z,5.50
2018-01-22T17:44:03.130Z,5.50
2018-01-22T17:46:31.423Z,5.50
2018-01-22T17:48:58.978Z,5.50
2018-01-22T17:51:26.462Z,5.50
2018-01-22T17:53:53.977Z,5.50
2018-01-22T17:56:22.277Z,5.50
2018-01-22T17:58:49.759Z,5.50
2018-01-22T18:01:19.183Z,5.50
2018-01-22T18:03:46.676Z,5.50
2018-01-22T18:06:14.166Z,5.50
2018-01-22T18:08:41.707Z,5.50
2018-01-22T18:11:09.212Z,5.50
2018-01-22T18:13:37.468Z,5.50
2018-01-22T18:16:04.956Z,5.50
2018-01-22T18:18:32.475Z,5.50
2018-01-22T18:20:59.952Z,5.50
2018-01-22T18:23:27.472Z,5.50
2018-01-22T18:25:54.969Z,5.50
2018-01-22T18:28:22.469Z,5.60
2018-01-22T18:30:50.703Z,5.60
2018-01-22T18:33:18.177Z,5.60
2018-01-22T18:35:46.433Z,5.60
2018-01-22T18:38:13.930Z,5.50
2018-01-22T18:40:42.247Z,5.60
2018-01-22T18:43:09.745Z,5.60
2018-01-22T18:45:37.229Z,5.60
2018-01-22T18:48:05.495Z,5.60
2018-01-22T18:50:33.742Z,5.60
2018-01-22T18:53:01.220Z,5.60
2018-01-22T18:55:28.716Z,5.60
2018-01-22T18:57:56.184Z,5.50
2018-01-22T19:00:23.664Z,5.60
2018-01-22T19:02:51.140Z,5.50
2018-01-22T19:05:18.900Z,5.50
2018-01-22T19:07:46.387Z,5.60
2018-01-22T19:10:14.643Z,5.60
2018-01-22T19:12:42.145Z,5.60
2018-01-22T19:15:09.616Z,5.70
2018-01-22T19:17:37.096Z,5.60
2018-01-22T19:20:04.577Z,5.60
2018-01-22T19:22:32.109Z,5.60
2018-01-22T19:24:59.641Z,5.60
2018-01-22T19:27:27.158Z,5.60
2018-01-22T19:29:54.623Z,5.60
2018-01-22T19:32:22.943Z,5.70
2018-01-22T19:34:50.424Z,5.70
2018-01-22T19:37:17.962Z,5.80
2018-01-22T19:39:45.434Z,5.80
2018-01-22T19:42:12.916Z,5.80
2018-01-22T19:44:41.096Z,5.80
2018-01-22T19:47:08.622Z,5.80
2018-01-22T19:49:36.091Z,5.80
2018-01-22T19:52:03.632Z,5.80
2018-01-22T19:54:31.988Z,5.70
2018-01-22T19:56:59.523Z,5.80
2018-01-22T19:59:27.776Z,5.70
2018-01-22T20:01:55.262Z,5.70
2018-01-22T20:04:23.577Z,5.70
2018-01-22T20:06:51.120Z,5.70
2018-01-22T20:09:18.642Z,5.70
2018-01-22T20:11:46.926Z,5.70
2018-01-22T20:14:15.189Z,5.70
2018-01-22T20:16:43.499Z,5.60
2018-01-22T20:19:11.034Z,5.60
2018-01-22T20:21:39.325Z,5.60
2018-01-22T20:24:07.558Z,5.60
2018-01-22T20:26:35.147Z,5.60
2018-01-22T20:29:03.412Z,5.60
2018-01-22T20:31:30.874Z,5.60
2018-01-22T20:33:59.132Z,5.50
2018-01-22T20:36:26.762Z,5.50
2018-01-22T20:38:54.300Z,5.50
2018-01-22T20:41:22.547Z,5.50
2018-01-22T20:43:50.056Z,5.50
2018-01-22T20:46:17.521Z,5.50
2018-01-22T20:48:45.071Z,5.50
2018-01-22T20:51:12.601Z,5.50
2018-01-22T20:53:40.867Z,5.40
2018-01-22T20:56:09.164Z,5.40
2018-01-22T20:58:36.757Z,5.40
2018-01-22T21:01:04.275Z,5.40
2018-01-22T21:03:32.563Z,5.40
2018-01-22T21:06:00.078Z,5.40
2018-01-22T21:08:27.602Z,5.40
2018-01-22T21:10:55.126Z,5.40
2018-01-22T21:13:23.378Z,5.30
2018-01-22T21:15:52.405Z,5.30
2018-01-22T21:18:19.981Z,5.30
2018-01-22T21:20:47.468Z,5.30
2018-01-22T21:23:15.083Z,5.30
2018-01-22T21:25:42.626Z,5.30
2018-01-22T21:28:10.865Z,5.30
2018-01-22T21:30:38.454Z,5.30
2018-01-22T21:33:06.728Z,5.20
2018-01-22T21:35:34.234Z,5.20
2018-01-22T21:38:01.761Z,5.20
2018-01-22T21:40:29.253Z,5.20
2018-01-22T21:42:56.731Z,5.10
2018-01-22T21:45:24.278Z,5.10
2018-01-22T21:47:51.744Z,5.20
2018-01-22T21:50:19.252Z,5.20
2018-01-22T21:52:47.491Z,5.10
2018-01-22T21:55:15.038Z,5.10
2018-01-22T21:57:42.508Z,5.10
2018-01-22T22:00:09.987Z,5.00
2018-01-22T22:02:38.239Z,5.10
2018-01-22T22:05:05.842Z,5.10
2018-01-22T22:07:33.345Z,5.00
2018-01-22T22:10:00.841Z,5.00
2018-01-22T22:12:29.096Z,5.00
2018-01-22T22:14:56.638Z,4.90
2018-01-22T22:17:24.159Z,5.00
2018-01-22T22:19:51.653Z,5.00
2018-01-22T22:22:19.155Z,4.90
2018-01-22T22:24:47.469Z,4.90
2018-01-22T22:27:14.943Z,4.90
2018-01-22T22:29:42.486Z,4.90
2018-01-22T22:32:09.967Z,4.90
2018-01-22T22:34:37.453Z,4.90
2018-01-22T22:37:05.062Z,5.00
2018-01-22T22:39:32.530Z,4.90
2018-01-22T22:41:59.991Z,4.90
2018-01-22T22:44:27.472Z,5.00
2018-01-22T22:46:54.989Z,5.00
2018-01-22T22:49:22.469Z,5.00
2018-01-22T22:51:49.950Z,5.00
2018-01-22T22:54:17.512Z,5.00
2018-01-22T22:56:45.008Z,5.00
2018-01-22T22:59:12.473Z,5.00
2018-01-22T23:01:39.952Z,5.00
2018-01-22T23:04:07.437Z,5.00
2018-01-22T23:06:34.932Z,5.00
2018-01-22T23:09:02.417Z,5.10
2018-01-22T23:11:29.908Z,5.10
2018-01-22T23:13:57.380Z,5.00
2018-01-22T23:16:24.855Z,5.00
2018-01-22T23:18:53.108Z,5.00
2018-01-22T23:21:20.581Z,5.00
2018-01-22T23:23:48.809Z,5.00
2018-01-22T23:26:16.287Z,5.00
2018-01-22T23:28:43.761Z,5.00
2018-01-22T23:31:12.018Z,5.00
2018-01-22T23:33:39.493Z,5.00
2018-01-22T23:36:06.989Z,5.00
2018-01-22T23:38:34.465Z,5.00
2018-01-22T23:41:01.947Z,4.90
2018-01-22T23:43:29.457Z,4.90
2018-01-22T23:45:56.923Z,4.90
2018-01-22T23:48:24.393Z,4.90
2018-01-22T23:50:51.856Z,4.90
2018-01-22T23:53:19.362Z,4.90
2018-01-22T23:55:46.822Z,4.90
2018-01-22T23:58:15.063Z,4.90
